createdAt,value
2018-07-16T00:00:47.989Z,21.60
2018-07-16T00:03:17.218Z,21.50
2018-07-16T00:05:46.429Z,21.50
2018-07-16T00:08:15.669Z,21.50
2018-07-16T00:10:44.901Z,21.60
2018-07-16T00:13:14.461Z,21.60
2018-07-16T00:15:43.956Z,21.60
2018-07-16T00:18:13.384Z,21.50
2018-07-16T00:20:42.614Z,21.50
2018-07-16T00:23:11.869Z,21.60
2018-07-16T00:25:41.281Z,21.50
2018-07-16T00:28:10.504Z,21.50
2018-07-16T00:30:39.747Z,21.40
2018-07-16T00:33:09.973Z,21.40
2018-07-16T00:35:39.713Z,21.30
2018-07-16T00:38:09.210Z,21.30
2018-07-16T00:40:38.413Z,21.30
2018-07-16T00:43:07.693Z,21.30
2018-07-16T00:45:37.188Z,21.20
2018-07-16T00:48:06.457Z,21.20
2018-07-16T00:50:35.684Z,21.10
2018-07-16T00:53:04.949Z,21.10
2018-07-16T00:55:34.160Z,21.10
2018-07-16T00:58:03.433Z,21.00
2018-07-16T01:00:33.024Z,21.00
2018-07-16T01:03:02.250Z,20.90
2018-07-16T01:05:31.477Z,20.90
2018-07-16T01:08:00.733Z,20.90
2018-07-16T01:10:29.959Z,20.90
2018-07-16T01:12:59.188Z,20.90
2018-07-16T01:15:28.457Z,20.80
2018-07-16T01:17:57.685Z,20.90
2018-07-16T01:20:26.997Z,20.80
2018-07-16T01:22:56.621Z,20.80
2018-07-16T01:25:25.833Z,20.80
2018-07-16T01:27:55.077Z,20.80
2018-07-16T01:30:24.335Z,20.80
2018-07-16T01:32:53.547Z,20.80
2018-07-16T01:35:22.765Z,20.80
2018-07-16T01:40:21.765Z,20.70
2018-07-16T01:42:50.976Z,20.70
2018-07-16T01:45:20.628Z,20.70
2018-07-16T01:47:50.033Z,20.60
2018-07-16T01:50:19.263Z,20.70
2018-07-16T01:52:48.536Z,20.60
2018-07-16T01:55:17.752Z,20.60
2018-07-16T01:57:46.993Z,20.70
2018-07-16T02:00:16.273Z,20.70
2018-07-16T02:02:45.489Z,20.70
2018-07-16T02:05:14.720Z,20.60
2018-07-16T02:07:44.334Z,20.60
2018-07-16T02:10:13.717Z,20.60
2018-07-16T02:12:42.945Z,20.60
2018-07-16T02:15:12.397Z,20.60
2018-07-16T02:17:41.617Z,20.60
2018-07-16T02:20:11.228Z,20.60
2018-07-16T02:22:40.501Z,20.60
2018-07-16T02:25:09.800Z,20.50
2018-07-16T02:27:39.024Z,20.50
2018-07-16T02:30:09.279Z,20.60
2018-07-16T02:32:38.493Z,20.50
2018-07-16T02:35:07.741Z,20.50
2018-07-16T02:37:36.978Z,20.50
2018-07-16T02:40:06.689Z,20.50
2018-07-16T02:42:36.233Z,20.50
2018-07-16T02:45:05.525Z,20.40
2018-07-16T02:47:34.864Z,20.40
2018-07-16T02:50:04.373Z,20.50
2018-07-16T02:52:34.210Z,20.40
2018-07-16T02:55:03.565Z,20.40
2018-07-16T02:57:33.193Z,20.40
2018-07-16T03:00:02.528Z,20.50
2018-07-16T03:02:34.451Z,20.50
2018-07-16T03:05:04.579Z,20.50
2018-07-16T03:07:33.990Z,20.50
2018-07-16T03:10:03.565Z,20.40
2018-07-16T03:12:33.224Z,20.40
2018-07-16T03:15:02.541Z,20.40
2018-07-16T03:17:31.805Z,20.30
2018-07-16T03:20:01.097Z,20.30
2018-07-16T03:22:30.396Z,20.20
2018-07-16T03:24:59.635Z,20.20
2018-07-16T03:27:28.941Z,20.20
2018-07-16T03:29:58.201Z,20.20
2018-07-16T03:32:27.444Z,20.20
2018-07-16T03:34:57.237Z,20.20
2018-07-16T03:37:26.478Z,20.10
2018-07-16T03:39:55.708Z,20.10
2018-07-16T03:42:25.283Z,20.20
2018-07-16T03:44:54.747Z,20.20
2018-07-16T03:47:24.165Z,20.10
2018-07-16T03:49:53.429Z,20.10
2018-07-16T03:52:22.676Z,20.10
2018-07-16T03:54:51.924Z,20.10
2018-07-16T03:57:22.176Z,20.10
2018-07-16T03:59:51.393Z,20.20
2018-07-16T04:02:20.629Z,20.20
2018-07-16T04:04:49.885Z,20.10
2018-07-16T04:07:19.120Z,20.20
2018-07-16T04:09:48.346Z,20.20
2018-07-16T04:12:17.737Z,20.20
2018-07-16T04:14:47.096Z,20.20
2018-07-16T04:17:16.297Z,20.20
2018-07-16T04:19:45.874Z,20.20
2018-07-16T04:22:15.252Z,20.20
2018-07-16T04:24:44.589Z,20.30
2018-07-16T04:27:13.848Z,20.20
2018-07-16T04:29:43.204Z,20.20
2018-07-16T04:32:12.429Z,20.30
2018-07-16T04:34:42.109Z,20.30
2018-07-16T04:37:11.673Z,20.30
2018-07-16T04:39:40.917Z,20.30
2018-07-16T04:42:11.058Z,20.30
2018-07-16T04:44:40.528Z,20.40
2018-07-16T04:47:09.777Z,20.40
2018-07-16T04:49:39.048Z,20.40
2018-07-16T04:52:08.296Z,20.50
2018-07-16T04:54:37.557Z,20.50
2018-07-16T04:57:06.847Z,20.50
2018-07-16T04:59:36.093Z,20.50
2018-07-16T05:02:05.312Z,20.60
2018-07-16T05:04:35.134Z,20.60
2018-07-16T05:07:04.797Z,20.70
2018-07-16T05:09:34.021Z,20.70
2018-07-16T05:12:03.417Z,20.70
2018-07-16T05:14:32.705Z,20.70
2018-07-16T05:19:31.018Z,20.80
2018-07-16T05:22:00.245Z,20.90
2018-07-16T05:24:29.453Z,20.90
2018-07-16T05:26:59.561Z,21.00
2018-07-16T05:29:28.866Z,21.00
2018-07-16T05:31:58.242Z,21.00
2018-07-16T05:34:27.396Z,21.00
2018-07-16T05:36:56.697Z,21.00
2018-07-16T05:39:25.938Z,21.00
2018-07-16T05:41:55.462Z,21.10
2018-07-16T05:44:24.712Z,21.10
2018-07-16T05:46:54.544Z,21.10
2018-07-16T05:49:24.047Z,21.20
2018-07-16T05:54:22.178Z,21.20
2018-07-16T05:56:51.456Z,21.30
2018-07-16T05:59:20.685Z,21.30
2018-07-16T06:01:50.044Z,21.30
2018-07-16T06:04:19.325Z,21.40
2018-07-16T06:06:48.703Z,21.40
2018-07-16T06:09:18.017Z,21.40
2018-07-16T06:11:47.788Z,21.50
2018-07-16T06:14:17.205Z,21.50
2018-07-16T06:16:46.835Z,21.60
2018-07-16T06:19:16.038Z,21.70
2018-07-16T06:21:45.277Z,21.80
2018-07-16T06:24:14.503Z,21.90
2018-07-16T06:26:43.749Z,21.90
2018-07-16T06:29:13.208Z,22.00
2018-07-16T06:31:42.929Z,22.00
2018-07-16T06:34:13.244Z,22.10
2018-07-16T06:36:42.833Z,22.20
2018-07-16T06:39:12.056Z,22.30
2018-07-16T06:41:41.348Z,22.30
2018-07-16T06:44:10.956Z,22.40
2018-07-16T06:46:40.167Z,22.40
2018-07-16T06:49:09.905Z,22.40
2018-07-16T06:51:39.145Z,22.40
2018-07-16T06:54:08.816Z,22.40
2018-07-16T06:56:38.524Z,22.30
2018-07-16T06:59:07.753Z,22.40
2018-07-16T07:01:36.992Z,22.40
2018-07-16T07:04:06.255Z,22.40
2018-07-16T07:06:35.568Z,22.40
2018-07-16T07:09:05.556Z,22.40
2018-07-16T07:11:34.788Z,22.40
2018-07-16T07:14:04.012Z,22.40
2018-07-16T07:16:33.277Z,22.40
2018-07-16T07:19:02.776Z,22.40
2018-07-16T07:21:32.039Z,22.30
2018-07-16T07:24:01.322Z,22.20
2018-07-16T07:26:30.569Z,22.20
2018-07-16T07:28:59.800Z,22.20
2018-07-16T07:31:29.186Z,22.30
2018-07-16T07:34:00.725Z,22.20
2018-07-16T07:36:30.060Z,22.20
2018-07-16T07:38:59.361Z,22.20
2018-07-16T07:41:29.360Z,22.20
2018-07-16T07:43:58.585Z,22.20
2018-07-16T07:46:27.808Z,22.20
2018-07-16T07:48:57.349Z,22.20
2018-07-16T07:51:27.061Z,22.10
2018-07-16T07:53:56.288Z,22.10
2018-07-16T07:56:25.585Z,22.10
2018-07-16T07:58:54.816Z,22.10
2018-07-16T08:01:24.043Z,22.10
2018-07-16T08:06:22.820Z,22.20
2018-07-16T08:08:52.097Z,22.20
2018-07-16T08:11:21.400Z,22.20
2018-07-16T08:13:50.715Z,22.20
2018-07-16T08:16:19.912Z,22.20
2018-07-16T08:18:49.164Z,22.20
2018-07-16T08:21:18.422Z,22.20
2018-07-16T08:23:47.673Z,22.30
2018-07-16T08:26:17.388Z,22.30
2018-07-16T08:28:46.623Z,22.30
2018-07-16T08:31:16.333Z,22.30
2018-07-16T08:33:45.623Z,22.30
2018-07-16T08:36:15.089Z,22.30
2018-07-16T08:38:44.353Z,22.40
2018-07-16T08:41:13.643Z,22.40
2018-07-16T08:43:42.864Z,22.40
2018-07-16T08:46:12.165Z,22.50
2018-07-16T08:48:41.557Z,22.60
2018-07-16T08:51:10.828Z,22.60
2018-07-16T08:53:40.427Z,22.70
2018-07-16T08:56:10.197Z,22.70
2018-07-16T08:58:39.646Z,22.70
2018-07-16T09:01:08.904Z,22.70
2018-07-16T09:03:38.152Z,22.80
2018-07-16T09:06:07.420Z,22.90
2018-07-16T09:08:37.113Z,22.90
2018-07-16T09:11:06.985Z,22.90
2018-07-16T09:13:36.290Z,22.90
2018-07-16T09:16:05.433Z,22.80
2018-07-16T09:18:34.703Z,22.70
2018-07-16T09:21:03.929Z,22.70
2018-07-16T09:23:33.204Z,22.80
2018-07-16T09:26:02.470Z,23.00
2018-07-16T09:28:31.737Z,23.10
2018-07-16T09:31:00.980Z,23.20
2018-07-16T09:33:31.280Z,23.40
2018-07-16T09:36:00.583Z,23.50
2018-07-16T09:38:29.802Z,23.70
2018-07-16T09:40:59.072Z,23.90
2018-07-16T09:43:28.307Z,24.00
2018-07-16T09:45:57.549Z,24.20
2018-07-16T09:48:26.824Z,24.40
2018-07-16T09:50:56.073Z,24.50
2018-07-16T09:53:25.309Z,24.60
2018-07-16T09:55:55.592Z,24.70
2018-07-16T09:58:25.437Z,24.80
2018-07-16T10:00:59.940Z,24.90
2018-07-16T10:03:29.344Z,25.10
2018-07-16T10:05:58.620Z,25.20
2018-07-16T10:08:27.901Z,25.30
2018-07-16T10:10:57.120Z,25.40
2018-07-16T10:13:26.393Z,25.60
2018-07-16T10:15:55.717Z,25.70
2018-07-16T10:18:24.996Z,25.80
2018-07-16T10:20:54.250Z,26.00
2018-07-16T10:23:23.559Z,26.10
2018-07-16T10:25:52.935Z,26.20
2018-07-16T10:28:22.136Z,26.30
2018-07-16T10:30:51.393Z,26.40
2018-07-16T10:35:49.424Z,26.50
2018-07-16T10:38:19.110Z,26.60
2018-07-16T10:40:48.645Z,26.70
2018-07-16T10:43:17.892Z,26.70
2018-07-16T10:48:15.960Z,26.90
2018-07-16T10:50:45.514Z,27.00
2018-07-16T10:53:14.777Z,27.10
2018-07-16T10:55:44.104Z,27.20
2018-07-16T10:58:13.604Z,27.30
2018-07-16T11:00:43.253Z,27.20
2018-07-16T11:03:12.514Z,27.10
2018-07-16T11:08:11.053Z,27.20
2018-07-16T11:10:40.489Z,27.30
2018-07-16T11:13:09.742Z,27.30
2018-07-16T11:15:39.112Z,27.40
2018-07-16T11:20:37.168Z,27.50
2018-07-16T11:23:06.888Z,27.50
2018-07-16T11:25:36.129Z,27.60
2018-07-16T11:28:05.423Z,27.70
2018-07-16T11:30:34.744Z,27.80
2018-07-16T11:33:04.057Z,27.90
2018-07-16T11:35:33.364Z,28.10
2018-07-16T11:38:02.549Z,28.20
2018-07-16T11:40:31.772Z,28.40
2018-07-16T11:43:00.992Z,28.40
2018-07-16T11:45:30.665Z,28.60
2018-07-16T11:48:00.233Z,29.10
2018-07-16T11:50:29.481Z,29.50
2018-07-16T11:52:59.029Z,29.60
2018-07-16T11:55:28.192Z,29.70
2018-07-16T11:57:57.492Z,29.90
2018-07-16T12:00:26.985Z,30.60
2018-07-16T12:02:56.249Z,31.80
2018-07-16T12:05:25.504Z,32.90
2018-07-16T12:07:54.982Z,33.00
2018-07-16T12:10:24.473Z,33.20
2018-07-16T12:12:53.806Z,33.30
2018-07-16T12:15:23.054Z,33.40
2018-07-16T12:17:52.333Z,33.70
2018-07-16T12:20:21.591Z,34.10
2018-07-16T12:22:50.873Z,35.00
2018-07-16T12:25:20.403Z,35.80
2018-07-16T12:27:49.672Z,36.30
2018-07-16T12:30:19.693Z,36.90
2018-07-16T12:32:49.341Z,37.30
2018-07-16T12:35:18.681Z,37.50
2018-07-16T12:37:47.944Z,38.00
2018-07-16T12:40:17.307Z,37.10
2018-07-16T12:42:46.541Z,37.40
2018-07-16T12:45:15.773Z,38.00
2018-07-16T12:47:45.006Z,38.20
2018-07-16T12:50:14.248Z,38.30
2018-07-16T12:52:43.945Z,38.40
2018-07-16T12:55:13.193Z,38.20
2018-07-16T13:00:11.449Z,38.80
2018-07-16T13:02:41.261Z,39.40
2018-07-16T13:05:10.929Z,39.70
2018-07-16T13:07:40.198Z,40.00
2018-07-16T13:10:09.770Z,40.40
2018-07-16T13:12:38.985Z,40.90
2018-07-16T13:15:08.557Z,41.20
2018-07-16T13:17:37.842Z,41.60
2018-07-16T13:20:07.472Z,42.10
2018-07-16T13:22:36.884Z,42.70
2018-07-16T13:25:06.169Z,43.10
2018-07-16T13:27:35.381Z,43.20
2018-07-16T13:30:05.937Z,43.30
2018-07-16T13:32:35.588Z,42.30
2018-07-16T13:35:04.929Z,40.80
2018-07-16T13:37:34.745Z,39.60
2018-07-16T13:40:04.261Z,39.10
2018-07-16T13:42:33.505Z,38.80
2018-07-16T13:45:02.825Z,38.00
2018-07-16T13:47:32.366Z,37.20
2018-07-16T13:50:01.593Z,36.60
2018-07-16T13:52:30.877Z,36.80
2018-07-16T13:55:00.451Z,37.30
2018-07-16T13:57:29.669Z,37.50
2018-07-16T13:59:59.380Z,38.70
2018-07-16T14:02:28.608Z,39.80
2018-07-16T14:07:27.038Z,41.60
2018-07-16T14:09:56.272Z,42.40
2018-07-16T14:12:25.678Z,43.10
2018-07-16T14:14:54.844Z,43.60
2018-07-16T14:17:24.056Z,44.10
2018-07-16T14:19:53.277Z,44.40
2018-07-16T14:22:23.169Z,44.50
2018-07-16T14:24:52.397Z,44.30
2018-07-16T14:27:21.608Z,43.20
2018-07-16T14:29:52.979Z,42.90
2018-07-16T14:32:22.493Z,43.50
2018-07-16T14:34:53.967Z,44.20
2018-07-16T14:37:23.220Z,44.70
2018-07-16T14:39:52.898Z,45.10
2018-07-16T14:45:20.977Z,46.00
2018-07-16T14:47:50.277Z,46.20
2018-07-16T14:50:19.592Z,46.40
2018-07-16T14:52:48.859Z,46.30
2018-07-16T14:55:18.142Z,46.30
2018-07-16T14:57:47.387Z,46.30
2018-07-16T15:00:17.085Z,46.10
2018-07-16T15:02:46.328Z,46.20
2018-07-16T15:05:16.265Z,46.40
2018-07-16T15:07:45.806Z,46.50
2018-07-16T15:10:15.045Z,46.70
2018-07-16T15:12:44.512Z,46.50
2018-07-16T15:15:13.759Z,46.70
2018-07-16T15:17:43.012Z,46.80
2018-07-16T15:20:12.244Z,46.60
2018-07-16T15:22:41.756Z,46.60
2018-07-16T15:25:10.985Z,46.20
2018-07-16T15:27:40.428Z,45.50
2018-07-16T15:30:10.122Z,45.40
2018-07-16T15:32:39.416Z,45.70
2018-07-16T15:35:08.637Z,46.10
2018-07-16T15:37:37.906Z,46.40
2018-07-16T15:40:07.323Z,46.40
2018-07-16T15:42:36.541Z,46.70
2018-07-16T15:45:05.905Z,46.70
2018-07-16T15:47:35.225Z,46.80
2018-07-16T15:50:04.497Z,46.80
2018-07-16T15:52:33.826Z,46.80
2018-07-16T15:55:03.094Z,46.70
2018-07-16T15:57:32.397Z,46.60
2018-07-16T16:00:01.641Z,46.70
2018-07-16T16:02:30.853Z,46.60
2018-07-16T16:05:00.128Z,46.30
2018-07-16T16:07:31.425Z,45.10
2018-07-16T16:12:30.185Z,41.10
2018-07-16T16:14:59.825Z,39.60
2018-07-16T16:17:29.077Z,38.70
2018-07-16T16:19:58.342Z,37.90
2018-07-16T16:22:27.641Z,37.20
2018-07-16T16:24:56.888Z,36.50
2018-07-16T16:27:26.287Z,36.10
2018-07-16T16:29:55.651Z,36.20
2018-07-16T16:32:25.158Z,36.40
2018-07-16T16:34:54.491Z,36.30
2018-07-16T16:37:24.007Z,35.80
2018-07-16T16:39:53.242Z,35.40
2018-07-16T16:42:22.505Z,35.10
2018-07-16T16:44:52.160Z,34.70
2018-07-16T16:47:21.433Z,34.30
2018-07-16T16:49:50.718Z,34.00
2018-07-16T16:52:20.057Z,33.80
2018-07-16T16:54:49.280Z,33.60
2018-07-16T16:57:18.496Z,33.40
2018-07-16T16:59:48.004Z,33.30
2018-07-16T17:02:17.408Z,33.40
2018-07-16T17:07:15.720Z,34.60
2018-07-16T17:09:45.321Z,35.80
2018-07-16T17:12:14.541Z,37.00
2018-07-16T17:14:43.814Z,37.90
2018-07-16T17:17:13.195Z,38.50
2018-07-16T17:19:42.437Z,38.90
2018-07-16T17:22:11.955Z,39.10
2018-07-16T17:24:41.177Z,39.30
2018-07-16T17:27:10.457Z,38.90
2018-07-16T17:29:39.683Z,38.40
2018-07-16T17:32:09.033Z,38.40
2018-07-16T17:34:38.373Z,38.30
2018-07-16T17:37:07.893Z,37.90
2018-07-16T17:39:37.316Z,37.20
2018-07-16T17:42:06.851Z,36.30
2018-07-16T17:44:36.580Z,35.50
2018-07-16T17:47:05.824Z,35.20
2018-07-16T17:49:35.080Z,35.00
2018-07-16T17:52:04.364Z,34.50
2018-07-16T17:54:33.663Z,33.90
2018-07-16T17:57:02.866Z,33.20
2018-07-16T17:59:32.105Z,32.60
2018-07-16T18:02:01.433Z,32.30
2018-07-16T18:04:30.644Z,32.00
2018-07-16T18:07:00.361Z,31.70
2018-07-16T18:09:29.615Z,31.40
2018-07-16T18:14:28.013Z,31.00
2018-07-16T18:16:57.259Z,31.00
2018-07-16T18:19:26.667Z,30.90
2018-07-16T18:21:55.937Z,30.90
2018-07-16T18:24:25.192Z,30.80
2018-07-16T18:26:54.473Z,30.70
2018-07-16T18:29:24.178Z,30.60
2018-07-16T18:31:53.484Z,30.50
2018-07-16T18:34:23.549Z,30.40
2018-07-16T18:36:52.833Z,30.30
2018-07-16T18:39:22.073Z,30.10
2018-07-16T18:41:51.304Z,30.00
2018-07-16T18:44:20.617Z,29.90
2018-07-16T18:46:49.853Z,29.70
2018-07-16T18:49:19.111Z,29.50
2018-07-16T18:51:48.997Z,29.30
2018-07-16T18:54:18.549Z,29.10
2018-07-16T18:56:47.781Z,29.00
2018-07-16T18:59:17.042Z,28.90
2018-07-16T19:01:46.281Z,28.70
2018-07-16T19:04:15.707Z,28.60
2018-07-16T19:06:45.501Z,28.50
2018-07-16T19:09:14.749Z,28.40
2018-07-16T19:11:43.992Z,28.20
2018-07-16T19:14:13.626Z,28.20
2018-07-16T19:16:42.854Z,28.10
2018-07-16T19:19:12.108Z,28.00
2018-07-16T19:21:41.334Z,27.70
2018-07-16T19:24:10.734Z,27.60
2018-07-16T19:26:40.006Z,27.50
2018-07-16T19:29:09.854Z,27.40
2018-07-16T19:31:39.093Z,27.20
2018-07-16T19:36:37.680Z,27.00
2018-07-16T19:39:09.151Z,26.90
2018-07-16T19:41:38.377Z,26.90
2018-07-16T19:44:07.809Z,26.80
2018-07-16T19:46:37.258Z,26.80
2018-07-16T19:49:06.554Z,26.60
2018-07-16T19:54:04.601Z,26.50
2018-07-16T19:56:34.311Z,26.40
2018-07-16T19:59:03.544Z,26.30
2018-07-16T20:01:32.873Z,26.30
2018-07-16T20:04:02.231Z,26.20
2018-07-16T20:06:31.514Z,26.10
2018-07-16T20:09:01.085Z,26.00
2018-07-16T20:11:30.329Z,26.00
2018-07-16T20:13:59.616Z,25.80
2018-07-16T20:16:43.120Z,25.80
2018-07-16T20:19:13.035Z,25.70
2018-07-16T20:21:42.316Z,25.70
2018-07-16T20:24:11.741Z,25.50
2018-07-16T20:26:40.974Z,25.50
2018-07-16T20:29:10.185Z,25.40
2018-07-16T20:31:39.576Z,25.40
2018-07-16T20:34:08.836Z,25.40
2018-07-16T20:36:38.121Z,25.30
2018-07-16T20:39:08.796Z,25.30
2018-07-16T20:41:38.040Z,25.20
2018-07-16T20:44:07.337Z,25.10
2018-07-16T20:46:36.915Z,25.10
2018-07-16T20:49:06.190Z,25.00
2018-07-16T20:51:35.356Z,25.00
2018-07-16T20:54:04.856Z,24.90
2018-07-16T20:56:34.128Z,24.80
2018-07-16T20:59:03.441Z,24.70
2018-07-16T21:01:33.102Z,24.60
2018-07-16T21:04:02.541Z,24.50
2018-07-16T21:06:31.777Z,24.40
2018-07-16T21:11:29.820Z,24.30
2018-07-16T21:13:59.114Z,24.20
2018-07-16T21:16:28.388Z,24.30
2018-07-16T21:18:58.136Z,24.20
2018-07-16T21:21:27.389Z,24.20
2018-07-16T21:23:57.239Z,24.00
2018-07-16T21:26:26.481Z,23.90
2018-07-16T21:31:24.930Z,23.70
2018-07-16T21:33:54.159Z,23.60
2018-07-16T21:36:23.352Z,23.60
2018-07-16T21:38:52.627Z,23.50
2018-07-16T21:41:22.170Z,23.50
2018-07-16T21:43:51.447Z,23.40
2018-07-16T21:46:21.379Z,23.30
2018-07-16T21:48:50.621Z,23.30
2018-07-16T21:51:19.881Z,23.20
2018-07-16T21:53:49.150Z,23.30
2018-07-16T21:56:18.382Z,23.30
2018-07-16T21:58:47.809Z,23.20
2018-07-16T22:03:46.656Z,23.20
2018-07-16T22:06:15.880Z,23.10
2018-07-16T22:08:45.385Z,23.00
2018-07-16T22:11:14.681Z,22.90
2018-07-16T22:13:43.933Z,22.80
2018-07-16T22:16:13.690Z,22.70
2018-07-16T22:18:42.853Z,22.70
2018-07-16T22:21:12.485Z,22.60
2018-07-16T22:23:41.752Z,22.50
2018-07-16T22:26:10.985Z,22.40
2018-07-16T22:28:40.229Z,22.30
2018-07-16T22:31:09.883Z,22.30
2018-07-16T22:33:39.272Z,22.30
2018-07-16T22:36:08.710Z,22.20
2018-07-16T22:38:38.017Z,22.10
2018-07-16T22:41:07.282Z,22.00
2018-07-16T22:43:36.609Z,21.80
2018-07-16T22:46:06.189Z,21.80
2018-07-16T22:48:35.663Z,21.80
2018-07-16T22:51:04.885Z,21.80
2018-07-16T22:53:34.509Z,21.80
2018-07-16T22:56:03.865Z,21.80
2018-07-16T22:58:33.133Z,21.80
2018-07-16T23:01:02.389Z,21.60
2018-07-16T23:03:31.629Z,21.50
2018-07-16T23:06:00.862Z,21.40
2018-07-16T23:08:30.106Z,21.40
2018-07-16T23:10:59.337Z,21.40
2018-07-16T23:13:28.601Z,21.40
2018-07-16T23:15:57.913Z,21.50
2018-07-16T23:18:27.133Z,21.50
2018-07-16T23:20:56.367Z,21.60
2018-07-16T23:23:25.972Z,21.40
2018-07-16T23:25:55.201Z,21.30
2018-07-16T23:28:24.442Z,21.20
2018-07-16T23:30:53.691Z,21.20
2018-07-16T23:33:23.120Z,21.10
2018-07-16T23:35:52.341Z,21.10
2018-07-16T23:38:21.926Z,21.10
2018-07-16T23:40:51.165Z,21.00
2018-07-16T23:43:20.376Z,21.00
2018-07-16T23:45:49.628Z,20.90
2018-07-16T23:48:18.844Z,20.90
2018-07-16T23:50:48.060Z,20.80
2018-07-16T23:53:17.321Z,20.80
2018-07-16T23:55:46.575Z,20.80
2018-07-16T23:58:15.788Z,20.70
